sensor_id;sensor_type;location;lat;lon;timestamp;temperature;humidity
21318;DHT22;10818;50.830;6.524;2022-09-17T00:02:59;10.50;99.90
21318;DHT22;10818;50.830;6.524;2022-09-17T00:08:01;10.50;99.90
21318;DHT22;10818;50.830;6.524;2022-09-17T00:13:03;10.50;99.90
21318;DHT22;10818;50.830;6.524;2022-09-17T00:18:04;10.60;99.90
21318;DHT22;10818;50.830;6.524;2022-09-17T00:23:05;10.60;99.90
21318;DHT22;10818;50.830;6.524;2022-09-17T00:28:05;10.70;99.90
21318;DHT22;10818;50.830;6.524;2022-09-17T00:33:07;10.80;99.90
21318;DHT22;10818;50.830;6.524;2022-09-17T00:38:09;10.90;99.90
21318;DHT22;10818;50.830;6.524;2022-09-17T00:43:10;10.90;99.90
21318;DHT22;10818;50.830;6.524;2022-09-17T00:48:11;10.90;99.90
21318;DHT22;10818;50.830;6.524;2022-09-17T00:53:17;11.00;99.90
21318;DHT22;10818;50.830;6.524;2022-09-17T00:58:19;10.90;99.90
21318;DHT22;10818;50.830;6.524;2022-09-17T01:03:21;10.90;99.90
21318;DHT22;10818;50.830;6.524;2022-09-17T01:14:09;10.80;99.90
21318;DHT22;10818;50.830;6.524;2022-09-17T01:30:37;10.80;99.90
21318;DHT22;10818;50.830;6.524;2022-09-17T01:41:25;10.70;99.90
21318;DHT22;10818;50.830;6.524;2022-09-17T01:46:31;10.70;99.90
21318;DHT22;10818;50.830;6.524;2022-09-17T01:51:37;10.70;99.90
21318;DHT22;10818;50.830;6.524;2022-09-17T01:56:44;10.80;99.90
21318;DHT22;10818;50.830;6.524;2022-09-17T02:01:51;10.70;99.90
21318;DHT22;10818;50.830;6.524;2022-09-17T02:06:58;10.60;99.90
21318;DHT22;10818;50.830;6.524;2022-09-17T02:12:01;10.60;99.90
21318;DHT22;10818;50.830;6.524;2022-09-17T02:22:38;10.50;99.90
21318;DHT22;10818;50.830;6.524;2022-09-17T02:28:00;10.50;99.90
21318;DHT22;10818;50.830;6.524;2022-09-17T02:33:04;10.60;99.90
21318;DHT22;10818;50.830;6.524;2022-09-17T02:38:06;10.70;99.90
21318;DHT22;10818;50.830;6.524;2022-09-17T02:43:33;10.70;99.90
21318;DHT22;10818;50.830;6.524;2022-09-17T02:59:38;11.00;99.90
21318;DHT22;10818;50.830;6.524;2022-09-17T03:04:37;11.10;99.90
21318;DHT22;10818;50.830;6.524;2022-09-17T03:09:39;11.00;99.90
21318;DHT22;10818;50.830;6.524;2022-09-17T03:14:41;11.00;99.90
21318;DHT22;10818;50.830;6.524;2022-09-17T03:19:41;11.10;99.90
21318;DHT22;10818;50.830;6.524;2022-09-17T03:24:42;11.10;99.90
21318;DHT22;10818;50.830;6.524;2022-09-17T03:29:42;11.10;99.90
21318;DHT22;10818;50.830;6.524;2022-09-17T03:34:43;11.10;99.90
21318;DHT22;10818;50.830;6.524;2022-09-17T03:39:46;11.20;99.90
21318;DHT22;10818;50.830;6.524;2022-09-17T03:44:46;11.20;99.90
21318;DHT22;10818;50.830;6.524;2022-09-17T03:49:47;11.20;99.90
21318;DHT22;10818;50.830;6.524;2022-09-17T03:54:47;11.00;99.90
21318;DHT22;10818;50.830;6.524;2022-09-17T03:59:49;11.00;99.90
21318;DHT22;10818;50.830;6.524;2022-09-17T04:04:50;11.10;99.90
21318;DHT22;10818;50.830;6.524;2022-09-17T04:09:51;11.10;99.90
21318;DHT22;10818;50.830;6.524;2022-09-17T04:14:52;11.10;99.90
21318;DHT22;10818;50.830;6.524;2022-09-17T04:19:52;10.90;99.90
21318;DHT22;10818;50.830;6.524;2022-09-17T04:24:53;10.80;99.90
21318;DHT22;10818;50.830;6.524;2022-09-17T04:29:53;10.70;99.90
21318;DHT22;10818;50.830;6.524;2022-09-17T04:34:54;10.70;99.90
21318;DHT22;10818;50.830;6.524;2022-09-17T04:39:54;10.80;99.90
21318;DHT22;10818;50.830;6.524;2022-09-17T04:44:55;10.80;99.90
21318;DHT22;10818;50.830;6.524;2022-09-17T04:49:57;10.90;99.90
21318;DHT22;10818;50.830;6.524;2022-09-17T04:54:57;10.90;99.90
21318;DHT22;10818;50.830;6.524;2022-09-17T04:59:58;10.80;99.90
21318;DHT22;10818;50.830;6.524;2022-09-17T05:04:58;10.80;99.90
21318;DHT22;10818;50.830;6.524;2022-09-17T05:09:59;10.90;99.90
21318;DHT22;10818;50.830;6.524;2022-09-17T05:15:00;10.90;99.90
21318;DHT22;10818;50.830;6.524;2022-09-17T05:20:00;10.90;99.90
21318;DHT22;10818;50.830;6.524;2022-09-17T05:25:01;10.90;99.90
21318;DHT22;10818;50.830;6.524;2022-09-17T05:35:10;10.90;99.90
21318;DHT22;10818;50.830;6.524;2022-09-17T05:40:11;11.10;99.90
21318;DHT22;10818;50.830;6.524;2022-09-17T05:45:11;11.20;99.90
21318;DHT22;10818;50.830;6.524;2022-09-17T05:50:12;11.40;99.90
21318;DHT22;10818;50.830;6.524;2022-09-17T05:55:13;11.50;99.90
21318;DHT22;10818;50.830;6.524;2022-09-17T06:00:13;11.60;99.90
21318;DHT22;10818;50.830;6.524;2022-09-17T06:05:15;12.00;99.90
21318;DHT22;10818;50.830;6.524;2022-09-17T06:10:15;12.30;99.90
21318;DHT22;10818;50.830;6.524;2022-09-17T06:15:16;12.30;99.90
21318;DHT22;10818;50.830;6.524;2022-09-17T06:20:17;12.40;99.90
21318;DHT22;10818;50.830;6.524;2022-09-17T06:25:18;12.50;99.90
21318;DHT22;10818;50.830;6.524;2022-09-17T06:30:19;12.60;99.90
21318;DHT22;10818;50.830;6.524;2022-09-17T06:35:19;12.80;99.90
21318;DHT22;10818;50.830;6.524;2022-09-17T06:40:20;12.90;99.90
21318;DHT22;10818;50.830;6.524;2022-09-17T06:45:22;12.90;99.90
21318;DHT22;10818;50.830;6.524;2022-09-17T06:50:23;12.90;99.90
21318;DHT22;10818;50.830;6.524;2022-09-17T06:55:24;12.80;99.90
21318;DHT22;10818;50.830;6.524;2022-09-17T07:00:25;12.70;99.90
21318;DHT22;10818;50.830;6.524;2022-09-17T07:05:28;12.90;99.90
21318;DHT22;10818;50.830;6.524;2022-09-17T07:10:30;13.40;99.90
21318;DHT22;10818;50.830;6.524;2022-09-17T07:15:30;13.60;99.90
21318;DHT22;10818;50.830;6.524;2022-09-17T07:20:31;13.80;99.90
21318;DHT22;10818;50.830;6.524;2022-09-17T07:25:32;14.60;99.90
21318;DHT22;10818;50.830;6.524;2022-09-17T07:30:32;15.10;99.90
21318;DHT22;10818;50.830;6.524;2022-09-17T07:35:33;15.60;99.90
21318;DHT22;10818;50.830;6.524;2022-09-17T07:40:34;18.60;99.90
21318;DHT22;10818;50.830;6.524;2022-09-17T07:45:34;22.60;99.90
21318;DHT22;10818;50.830;6.524;2022-09-17T07:50:36;26.20;99.90
21318;DHT22;10818;50.830;6.524;2022-09-17T07:55:37;27.00;98.80
21318;DHT22;10818;50.830;6.524;2022-09-17T08:00:37;28.80;95.20
21318;DHT22;10818;50.830;6.524;2022-09-17T08:05:38;29.80;91.90
21318;DHT22;10818;50.830;6.524;2022-09-17T08:10:38;27.40;92.40
21318;DHT22;10818;50.830;6.524;2022-09-17T08:15:38;25.40;93.60
21318;DHT22;10818;50.830;6.524;2022-09-17T08:20:39;23.00;97.30
21318;DHT22;10818;50.830;6.524;2022-09-17T08:25:40;20.50;99.90
21318;DHT22;10818;50.830;6.524;2022-09-17T08:30:40;19.50;99.90
21318;DHT22;10818;50.830;6.524;2022-09-17T08:35:41;18.70;99.90
21318;DHT22;10818;50.830;6.524;2022-09-17T08:40:44;18.60;99.90
21318;DHT22;10818;50.830;6.524;2022-09-17T08:45:50;18.00;99.90
21318;DHT22;10818;50.830;6.524;2022-09-17T08:50:51;17.60;99.90
21318;DHT22;10818;50.830;6.524;2022-09-17T08:56:02;18.30;99.90
21318;DHT22;10818;50.830;6.524;2022-09-17T09:06:18;19.20;99.90
21318;DHT22;10818;50.830;6.524;2022-09-17T09:11:25;19.40;99.90
21318;DHT22;10818;50.830;6.524;2022-09-17T09:16:29;20.00;99.90
21318;DHT22;10818;50.830;6.524;2022-09-17T09:21:49;19.80;99.90
21318;DHT22;10818;50.830;6.524;2022-09-17T09:37:38;19.10;99.90
21318;DHT22;10818;50.830;6.524;2022-09-17T09:42:43;19.10;99.90
21318;DHT22;10818;50.830;6.524;2022-09-17T09:48:06;19.60;99.90
21318;DHT22;10818;50.830;6.524;2022-09-17T10:04:20;19.80;99.90
21318;DHT22;10818;50.830;6.524;2022-09-17T10:09:21;19.60;99.90
21318;DHT22;10818;50.830;6.524;2022-09-17T10:14:27;20.00;99.90
21318;DHT22;10818;50.830;6.524;2022-09-17T10:19:28;19.80;99.90
21318;DHT22;10818;50.830;6.524;2022-09-17T10:24:30;19.80;99.90
21318;DHT22;10818;50.830;6.524;2022-09-17T10:29:33;20.00;99.90
21318;DHT22;10818;50.830;6.524;2022-09-17T10:34:34;19.40;99.90
21318;DHT22;10818;50.830;6.524;2022-09-17T10:39:35;18.90;99.90
21318;DHT22;10818;50.830;6.524;2022-09-17T10:50:01;17.70;99.90
21318;DHT22;10818;50.830;6.524;2022-09-17T11:00:24;18.40;99.90
21318;DHT22;10818;50.830;6.524;2022-09-17T11:05:48;18.60;99.90
21318;DHT22;10818;50.830;6.524;2022-09-17T11:16:38;18.60;99.90
21318;DHT22;10818;50.830;6.524;2022-09-17T11:21:44;18.70;99.90
21318;DHT22;10818;50.830;6.524;2022-09-17T11:43:06;17.70;99.90
21318;DHT22;10818;50.830;6.524;2022-09-17T11:48:16;17.60;99.90
21318;DHT22;10818;50.830;6.524;2022-09-17T11:53:27;18.10;99.90
21318;DHT22;10818;50.830;6.524;2022-09-17T11:59:43;17.90;99.90
21318;DHT22;10818;50.830;6.524;2022-09-17T12:09:28;16.20;99.90
21318;DHT22;10818;50.830;6.524;2022-09-17T12:15:02;15.80;99.90
21318;DHT22;10818;50.830;6.524;2022-09-17T12:25:21;15.50;99.90
21318;DHT22;10818;50.830;6.524;2022-09-17T12:30:23;15.20;99.90
21318;DHT22;10818;50.830;6.524;2022-09-17T12:41:15;15.90;99.90
21318;DHT22;10818;50.830;6.524;2022-09-17T12:51:59;16.80;99.90
21318;DHT22;10818;50.830;6.524;2022-09-17T13:02:26;17.30;99.90
21318;DHT22;10818;50.830;6.524;2022-09-17T13:13:06;17.40;99.90
21318;DHT22;10818;50.830;6.524;2022-09-17T13:18:13;17.10;99.90
21318;DHT22;10818;50.830;6.524;2022-09-17T13:23:15;16.50;99.90
21318;DHT22;10818;50.830;6.524;2022-09-17T13:28:16;16.10;99.90
21318;DHT22;10818;50.830;6.524;2022-09-17T13:38:55;15.80;99.90
21318;DHT22;10818;50.830;6.524;2022-09-17T13:43:56;15.80;99.90
21318;DHT22;10818;50.830;6.524;2022-09-17T13:49:00;15.80;99.90
21318;DHT22;10818;50.830;6.524;2022-09-17T13:54:06;15.90;99.90
21318;DHT22;10818;50.830;6.524;2022-09-17T13:59:10;16.00;99.90
21318;DHT22;10818;50.830;6.524;2022-09-17T14:09:55;16.30;99.90
21318;DHT22;10818;50.830;6.524;2022-09-17T14:14:55;16.40;99.90
21318;DHT22;10818;50.830;6.524;2022-09-17T14:19:56;16.30;99.90
21318;DHT22;10818;50.830;6.524;2022-09-17T14:24:57;16.30;99.90
21318;DHT22;10818;50.830;6.524;2022-09-17T14:30:26;16.40;99.90
21318;DHT22;10818;50.830;6.524;2022-09-17T14:40:45;16.40;99.90
21318;DHT22;10818;50.830;6.524;2022-09-17T14:45:48;16.60;99.90
21318;DHT22;10818;50.830;6.524;2022-09-17T14:50:50;16.50;99.90
21318;DHT22;10818;50.830;6.524;2022-09-17T14:55:50;16.20;99.90
21318;DHT22;10818;50.830;6.524;2022-09-17T15:00:52;16.30;99.90
21318;DHT22;10818;50.830;6.524;2022-09-17T15:05:56;16.60;99.90
21318;DHT22;10818;50.830;6.524;2022-09-17T15:10:59;16.90;99.90
21318;DHT22;10818;50.830;6.524;2022-09-17T15:16:04;16.90;99.90
21318;DHT22;10818;50.830;6.524;2022-09-17T15:21:20;17.10;99.90
21318;DHT22;10818;50.830;6.524;2022-09-17T15:26:31;17.10;99.90
21318;DHT22;10818;50.830;6.524;2022-09-17T15:31:32;17.00;99.90
21318;DHT22;10818;50.830;6.524;2022-09-17T15:36:33;17.00;99.90
21318;DHT22;10818;50.830;6.524;2022-09-17T15:41:34;16.90;99.90
21318;DHT22;10818;50.830;6.524;2022-09-17T15:46:35;16.80;99.90
21318;DHT22;10818;50.830;6.524;2022-09-17T15:51:37;16.70;99.90
21318;DHT22;10818;50.830;6.524;2022-09-17T15:56:38;16.40;99.90
21318;DHT22;10818;50.830;6.524;2022-09-17T16:06:57;16.10;99.90
21318;DHT22;10818;50.830;6.524;2022-09-17T16:11:58;16.30;99.90
21318;DHT22;10818;50.830;6.524;2022-09-17T16:17:08;16.20;99.90
21318;DHT22;10818;50.830;6.524;2022-09-17T16:22:08;15.90;99.90
21318;DHT22;10818;50.830;6.524;2022-09-17T16:27:15;15.80;99.90
21318;DHT22;10818;50.830;6.524;2022-09-17T16:32:16;15.70;99.90
21318;DHT22;10818;50.830;6.524;2022-09-17T16:37:17;15.70;99.90
21318;DHT22;10818;50.830;6.524;2022-09-17T16:42:18;15.50;99.90
21318;DHT22;10818;50.830;6.524;2022-09-17T16:47:18;15.10;99.90
21318;DHT22;10818;50.830;6.524;2022-09-17T16:52:19;14.90;99.90
21318;DHT22;10818;50.830;6.524;2022-09-17T16:57:19;14.60;99.90
21318;DHT22;10818;50.830;6.524;2022-09-17T17:02:20;14.50;99.90
21318;DHT22;10818;50.830;6.524;2022-09-17T17:07:20;14.50;99.90
21318;DHT22;10818;50.830;6.524;2022-09-17T17:12:21;14.30;99.90
21318;DHT22;10818;50.830;6.524;2022-09-17T17:17:21;14.30;99.90
21318;DHT22;10818;50.830;6.524;2022-09-17T17:22:22;14.20;99.90
21318;DHT22;10818;50.830;6.524;2022-09-17T17:27:23;14.20;99.90
21318;DHT22;10818;50.830;6.524;2022-09-17T17:32:24;14.10;99.90
21318;DHT22;10818;50.830;6.524;2022-09-17T17:37:25;13.90;99.90
21318;DHT22;10818;50.830;6.524;2022-09-17T17:42:26;14.00;99.90
21318;DHT22;10818;50.830;6.524;2022-09-17T17:47:26;13.90;99.90
21318;DHT22;10818;50.830;6.524;2022-09-17T17:52:27;13.90;99.90
21318;DHT22;10818;50.830;6.524;2022-09-17T17:57:27;13.80;99.90
21318;DHT22;10818;50.830;6.524;2022-09-17T18:02:28;13.80;99.90
21318;DHT22;10818;50.830;6.524;2022-09-17T18:07:28;13.70;99.90
21318;DHT22;10818;50.830;6.524;2022-09-17T18:12:29;13.60;99.90
21318;DHT22;10818;50.830;6.524;2022-09-17T18:17:29;13.70;99.90
21318;DHT22;10818;50.830;6.524;2022-09-17T18:22:30;13.50;99.90
21318;DHT22;10818;50.830;6.524;2022-09-17T18:27:31;13.50;99.90
21318;DHT22;10818;50.830;6.524;2022-09-17T18:32:31;13.50;99.90
21318;DHT22;10818;50.830;6.524;2022-09-17T18:37:32;13.40;99.90
21318;DHT22;10818;50.830;6.524;2022-09-17T18:42:32;13.20;99.90
21318;DHT22;10818;50.830;6.524;2022-09-17T18:47:33;13.30;99.90
21318;DHT22;10818;50.830;6.524;2022-09-17T18:52:33;13.30;99.90
21318;DHT22;10818;50.830;6.524;2022-09-17T18:57:34;13.30;99.90
21318;DHT22;10818;50.830;6.524;2022-09-17T19:02:34;13.20;99.90
21318;DHT22;10818;50.830;6.524;2022-09-17T19:07:35;13.20;99.90
21318;DHT22;10818;50.830;6.524;2022-09-17T19:12:35;13.20;99.90
21318;DHT22;10818;50.830;6.524;2022-09-17T19:17:36;13.20;99.90
21318;DHT22;10818;50.830;6.524;2022-09-17T19:22:36;13.20;99.90
21318;DHT22;10818;50.830;6.524;2022-09-17T19:27:37;13.20;99.90
21318;DHT22;10818;50.830;6.524;2022-09-17T19:32:38;13.20;99.90
21318;DHT22;10818;50.830;6.524;2022-09-17T19:37:39;13.20;99.90
21318;DHT22;10818;50.830;6.524;2022-09-17T19:42:39;13.20;99.90
21318;DHT22;10818;50.830;6.524;2022-09-17T19:47:40;13.10;99.90
21318;DHT22;10818;50.830;6.524;2022-09-17T19:52:40;13.20;99.90
21318;DHT22;10818;50.830;6.524;2022-09-17T19:57:41;13.20;99.90
21318;DHT22;10818;50.830;6.524;2022-09-17T20:02:42;13.10;99.90
21318;DHT22;10818;50.830;6.524;2022-09-17T20:07:42;13.10;99.90
21318;DHT22;10818;50.830;6.524;2022-09-17T20:12:43;13.20;99.90
21318;DHT22;10818;50.830;6.524;2022-09-17T20:17:43;13.10;99.90
21318;DHT22;10818;50.830;6.524;2022-09-17T20:22:44;13.10;99.90
21318;DHT22;10818;50.830;6.524;2022-09-17T20:27:44;13.10;99.90
21318;DHT22;10818;50.830;6.524;2022-09-17T20:32:45;13.00;99.90
21318;DHT22;10818;50.830;6.524;2022-09-17T20:37:45;13.00;99.90
21318;DHT22;10818;50.830;6.524;2022-09-17T20:42:46;13.00;99.90
21318;DHT22;10818;50.830;6.524;2022-09-17T20:47:47;13.00;99.90
21318;DHT22;10818;50.830;6.524;2022-09-17T20:52:47;12.90;99.90
21318;DHT22;10818;50.830;6.524;2022-09-17T20:57:48;12.80;99.90
21318;DHT22;10818;50.830;6.524;2022-09-17T21:02:48;12.80;99.90
21318;DHT22;10818;50.830;6.524;2022-09-17T21:07:55;12.80;99.90
21318;DHT22;10818;50.830;6.524;2022-09-17T21:12:56;12.80;99.90
21318;DHT22;10818;50.830;6.524;2022-09-17T21:17:56;12.70;99.90
21318;DHT22;10818;50.830;6.524;2022-09-17T21:22:56;12.70;99.90
21318;DHT22;10818;50.830;6.524;2022-09-17T21:27:57;12.60;99.90
21318;DHT22;10818;50.830;6.524;2022-09-17T21:32:57;12.60;99.90
21318;DHT22;10818;50.830;6.524;2022-09-17T21:37:59;12.60;99.90
21318;DHT22;10818;50.830;6.524;2022-09-17T21:43:00;12.60;99.90
21318;DHT22;10818;50.830;6.524;2022-09-17T21:48:00;12.60;99.90
21318;DHT22;10818;50.830;6.524;2022-09-17T21:53:01;12.50;99.90
21318;DHT22;10818;50.830;6.524;2022-09-17T21:58:01;12.40;99.90
21318;DHT22;10818;50.830;6.524;2022-09-17T22:03:02;12.40;99.90
21318;DHT22;10818;50.830;6.524;2022-09-17T22:08:02;12.50;99.90
21318;DHT22;10818;50.830;6.524;2022-09-17T22:13:03;12.40;99.90
21318;DHT22;10818;50.830;6.524;2022-09-17T22:18:04;12.40;99.90
21318;DHT22;10818;50.830;6.524;2022-09-17T22:23:04;12.40;99.90
21318;DHT22;10818;50.830;6.524;2022-09-17T22:28:05;12.40;99.90
21318;DHT22;10818;50.830;6.524;2022-09-17T22:33:05;12.40;99.90
21318;DHT22;10818;50.830;6.524;2022-09-17T22:38:06;12.40;99.90
21318;DHT22;10818;50.830;6.524;2022-09-17T22:43:06;12.40;99.90
21318;DHT22;10818;50.830;6.524;2022-09-17T22:48:07;12.40;99.90
21318;DHT22;10818;50.830;6.524;2022-09-17T22:53:07;12.40;99.90
21318;DHT22;10818;50.830;6.524;2022-09-17T22:58:07;12.40;99.90
21318;DHT22;10818;50.830;6.524;2022-09-17T23:03:08;12.40;99.90
21318;DHT22;10818;50.830;6.524;2022-09-17T23:08:08;12.50;99.90
21318;DHT22;10818;50.830;6.524;2022-09-17T23:13:09;12.50;99.90
21318;DHT22;10818;50.830;6.524;2022-09-17T23:18:10;12.50;99.90
21318;DHT22;10818;50.830;6.524;2022-09-17T23:23:10;12.50;99.90
21318;DHT22;10818;50.830;6.524;2022-09-17T23:28:11;12.40;99.90
21318;DHT22;10818;50.830;6.524;2022-09-17T23:33:12;12.40;99.90
21318;DHT22;10818;50.830;6.524;2022-09-17T23:38:13;12.40;99.90
21318;DHT22;10818;50.830;6.524;2022-09-17T23:43:13;12.40;99.90
21318;DHT22;10818;50.830;6.524;2022-09-17T23:48:14;12.30;99.90
21318;DHT22;10818;50.830;6.524;2022-09-17T23:53:14;12.30;99.90
21318;DHT22;10818;50.830;6.524;2022-09-17T23:58:14;12.20;99.90
